createdAt,value
2018-12-15T00:00:01.900Z,5.73
2018-12-15T00:00:39.131Z,6.83
2018-12-15T00:01:15.908Z,5.97
2018-12-15T00:01:53.610Z,6.37
2018-12-15T00:02:30.499Z,5.90
2018-12-15T00:03:07.486Z,6.20
2018-12-15T00:03:44.291Z,6.10
2018-12-15T00:04:22.077Z,5.80
2018-12-15T00:04:58.926Z,6.00
2018-12-15T00:05:35.858Z,6.10
2018-12-15T00:06:12.689Z,6.13
2018-12-15T00:06:49.525Z,6.80
2018-12-15T00:07:26.604Z,7.50
2018-12-15T00:08:03.478Z,7.13
2018-12-15T00:08:40.328Z,6.50
2018-12-15T00:09:17.717Z,6.87
2018-12-15T00:09:54.629Z,7.17
2018-12-15T00:10:31.453Z,6.43
2018-12-15T00:11:08.425Z,7.63
2018-12-15T00:11:45.293Z,7.00
2018-12-15T00:12:22.176Z,6.00
2018-12-15T00:12:58.983Z,8.30
2018-12-15T00:13:35.880Z,7.37
2018-12-15T00:14:13.860Z,7.83
2018-12-15T00:14:50.877Z,8.53
2018-12-15T00:15:27.716Z,8.00
2018-12-15T00:16:04.561Z,7.67
2018-12-15T00:16:41.457Z,7.90
2018-12-15T00:17:18.404Z,8.43
2018-12-15T00:17:55.222Z,7.43
2018-12-15T00:18:31.995Z,7.33
2018-12-15T00:19:08.899Z,7.33
2018-12-15T00:19:45.735Z,7.40
2018-12-15T00:20:22.643Z,9.00
2018-12-15T00:20:59.532Z,7.67
2018-12-15T00:21:36.477Z,8.30
2018-12-15T00:22:13.321Z,8.20
2018-12-15T00:22:50.069Z,8.27
2018-12-15T00:23:26.973Z,8.17
2018-12-15T00:24:03.760Z,7.80
2018-12-15T00:24:40.770Z,8.33
2018-12-15T00:25:17.765Z,9.47
2018-12-15T00:25:54.705Z,9.53
2018-12-15T00:26:31.531Z,8.33
2018-12-15T00:27:08.275Z,8.63
2018-12-15T00:27:45.112Z,8.33
2018-12-15T00:28:21.865Z,8.43
2018-12-15T00:28:58.720Z,8.90
2018-12-15T00:29:35.667Z,7.93
2018-12-15T00:30:12.584Z,9.43
2018-12-15T00:30:49.429Z,9.47
2018-12-15T00:31:26.275Z,9.93
2018-12-15T00:32:03.017Z,8.70
2018-12-15T00:32:39.866Z,8.90
2018-12-15T00:33:16.770Z,9.63
2018-12-15T00:33:53.915Z,8.50
2018-12-15T00:34:30.721Z,9.40
2018-12-15T00:35:07.819Z,8.63
2018-12-15T00:35:44.686Z,8.97
2018-12-15T00:36:21.686Z,9.27
2018-12-15T00:36:58.699Z,9.93
2018-12-15T00:37:35.506Z,8.40
2018-12-15T00:38:12.344Z,8.30
2018-12-15T00:38:49.119Z,9.50
2018-12-15T00:39:25.940Z,8.50
2018-12-15T00:40:02.860Z,8.87
2018-12-15T00:40:39.723Z,8.20
2018-12-15T00:41:16.548Z,8.73
2018-12-15T00:41:53.429Z,8.57
2018-12-15T00:42:36.713Z,7.73
2018-12-15T00:43:13.626Z,8.93
2018-12-15T00:43:50.499Z,8.67
2018-12-15T00:44:27.285Z,9.80
2018-12-15T00:45:04.187Z,8.97
2018-12-15T00:45:40.992Z,9.57
2018-12-15T00:46:17.997Z,10.30
2018-12-15T00:46:54.903Z,9.17
2018-12-15T00:47:31.861Z,8.40
2018-12-15T00:48:08.744Z,9.50
2018-12-15T00:48:45.587Z,9.37
2018-12-15T00:49:22.407Z,8.27
2018-12-15T00:49:59.132Z,8.30
2018-12-15T00:50:35.994Z,8.60
2018-12-15T00:51:12.962Z,8.07
2018-12-15T00:51:49.761Z,7.83
2018-12-15T00:52:26.656Z,9.07
2018-12-15T00:53:03.407Z,8.00
2018-12-15T00:53:40.345Z,7.80
2018-12-15T00:54:17.185Z,8.70
2018-12-15T00:54:54.031Z,8.10
2018-12-15T00:55:30.866Z,7.57
2018-12-15T00:56:07.809Z,7.67
2018-12-15T00:56:44.712Z,8.30
2018-12-15T00:57:21.641Z,7.87
2018-12-15T00:57:58.559Z,7.03
2018-12-15T00:58:35.501Z,6.83
2018-12-15T00:59:12.393Z,7.27
2018-12-15T00:59:49.177Z,6.57
2018-12-15T01:00:26.248Z,6.53
2018-12-15T01:01:03.137Z,6.70
2018-12-15T01:01:39.994Z,7.30
2018-12-15T01:02:16.872Z,7.53
2018-12-15T01:02:53.755Z,6.67
2018-12-15T01:03:30.593Z,6.83
2018-12-15T01:04:07.352Z,7.37
2018-12-15T01:04:44.320Z,5.60
2018-12-15T01:05:21.249Z,7.03
2018-12-15T01:05:58.119Z,7.10
2018-12-15T01:06:34.948Z,6.17
2018-12-15T01:07:11.937Z,5.70
2018-12-15T01:07:48.874Z,6.30
2018-12-15T01:08:25.670Z,6.23
2018-12-15T01:09:02.514Z,6.10
2018-12-15T01:09:39.348Z,5.70
2018-12-15T01:10:16.256Z,6.93
2018-12-15T01:10:53.225Z,6.20
2018-12-15T01:11:30.041Z,6.03
2018-12-15T01:12:06.865Z,5.73
2018-12-15T01:12:43.650Z,5.73
2018-12-15T01:13:20.642Z,5.80
2018-12-15T01:13:57.429Z,6.37
2018-12-15T01:14:34.264Z,5.20
2018-12-15T01:15:11.095Z,4.90
2018-12-15T01:15:47.993Z,5.33
2018-12-15T01:16:25.676Z,6.03
2018-12-15T01:17:02.498Z,6.17
2018-12-15T01:17:39.353Z,5.10
2018-12-15T01:18:16.800Z,6.27
2018-12-15T01:18:53.553Z,5.40
2018-12-15T01:19:30.438Z,5.07
2018-12-15T01:20:07.561Z,5.27
2018-12-15T01:20:44.272Z,4.50
2018-12-15T01:21:21.146Z,5.13
2018-12-15T01:21:58.084Z,5.27
2018-12-15T01:22:34.945Z,5.57
2018-12-15T01:23:11.827Z,5.30
2018-12-15T01:23:48.662Z,5.03
2018-12-15T01:24:25.575Z,5.50
2018-12-15T01:25:02.389Z,4.67
2018-12-15T01:25:39.296Z,5.23
2018-12-15T01:26:16.289Z,5.00
2018-12-15T01:26:53.171Z,4.70
2018-12-15T01:27:29.931Z,4.90
2018-12-15T01:28:06.878Z,5.50
2018-12-15T01:28:44.339Z,5.37
2018-12-15T01:29:21.180Z,5.30
2018-12-15T01:29:57.989Z,6.63
2018-12-15T01:30:34.894Z,6.07
2018-12-15T01:31:11.769Z,5.80
2018-12-15T01:31:48.637Z,5.47
2018-12-15T01:32:25.556Z,5.73
2018-12-15T01:33:02.425Z,6.20
2018-12-15T01:33:39.411Z,5.53
2018-12-15T01:34:16.268Z,5.43
2018-12-15T01:34:53.273Z,6.23
2018-12-15T01:35:30.072Z,5.20
2018-12-15T01:36:06.883Z,5.80
2018-12-15T01:36:43.897Z,6.07
2018-12-15T01:37:20.755Z,5.60
2018-12-15T01:37:57.599Z,7.00
2018-12-15T01:38:34.524Z,6.30
2018-12-15T01:39:12.080Z,5.10
2018-12-15T01:39:48.954Z,5.77
2018-12-15T01:40:26.699Z,6.03
2018-12-15T01:41:03.532Z,6.63
2018-12-15T01:41:40.305Z,7.17
2018-12-15T01:42:17.271Z,5.00
2018-12-15T01:42:54.027Z,5.37
2018-12-15T01:43:31.908Z,5.80
2018-12-15T01:44:08.927Z,5.37
2018-12-15T01:44:45.757Z,6.00
2018-12-15T01:45:22.785Z,5.90
2018-12-15T01:45:59.476Z,5.77
2018-12-15T01:46:36.436Z,6.57
2018-12-15T01:47:13.450Z,5.20
2018-12-15T01:47:50.314Z,5.43
2018-12-15T01:48:27.166Z,6.23
2018-12-15T01:49:03.972Z,5.90
2018-12-15T01:49:40.884Z,5.37
2018-12-15T01:50:17.873Z,6.10
2018-12-15T01:50:54.993Z,5.90
2018-12-15T01:51:31.720Z,5.47
2018-12-15T01:52:08.583Z,5.77
2018-12-15T01:52:45.341Z,6.00
2018-12-15T01:53:22.104Z,5.90
2018-12-15T01:53:58.979Z,6.03
2018-12-15T01:54:37.008Z,6.23
2018-12-15T01:55:13.942Z,6.43
2018-12-15T01:55:50.903Z,5.23
2018-12-15T01:56:28.514Z,5.90
2018-12-15T01:57:05.320Z,5.90
2018-12-15T01:57:42.186Z,6.33
2018-12-15T01:58:18.991Z,5.63
2018-12-15T01:58:55.882Z,5.67
2018-12-15T01:59:33.604Z,6.07
2018-12-15T02:00:11.439Z,6.00
2018-12-15T02:00:49.328Z,6.80
2018-12-15T02:01:26.206Z,6.17
2018-12-15T02:02:03.107Z,6.47
2018-12-15T02:02:39.906Z,6.00
2018-12-15T02:03:17.248Z,5.07
2018-12-15T02:03:54.329Z,5.60
2018-12-15T02:04:31.308Z,5.80
2018-12-15T02:05:08.244Z,6.70
2018-12-15T02:05:45.434Z,5.97
2018-12-15T02:06:22.625Z,5.13
2018-12-15T02:06:59.697Z,6.10
2018-12-15T02:07:36.600Z,6.90
2018-12-15T02:08:13.462Z,5.60
2018-12-15T02:08:50.601Z,6.00
2018-12-15T02:09:30.487Z,6.83
2018-12-15T02:10:08.243Z,7.67
2018-12-15T02:10:44.989Z,5.70
2018-12-15T02:11:22.152Z,6.30
2018-12-15T02:11:58.898Z,5.80
2018-12-15T02:12:36.007Z,5.60
2018-12-15T02:13:12.934Z,5.07
2018-12-15T02:13:49.970Z,4.97
2018-12-15T02:14:26.777Z,4.47
2018-12-15T02:15:03.769Z,4.67
2018-12-15T02:15:40.584Z,4.87
2018-12-15T02:16:17.324Z,5.77
2018-12-15T02:16:54.409Z,5.73
2018-12-15T02:17:33.765Z,5.93
2018-12-15T02:18:10.271Z,5.23
2018-12-15T02:18:47.197Z,6.10
2018-12-15T02:19:24.157Z,6.47
2018-12-15T02:20:01.756Z,4.47
2018-12-15T02:20:38.793Z,4.33
2018-12-15T02:21:15.849Z,5.47
2018-12-15T02:21:53.265Z,3.70
2018-12-15T02:22:30.412Z,3.43
2018-12-15T02:23:07.439Z,3.93
2018-12-15T02:23:44.562Z,3.73
2018-12-15T02:24:21.901Z,3.40
2018-12-15T02:24:59.461Z,3.83
2018-12-15T02:25:36.543Z,2.70
2018-12-15T02:26:13.485Z,2.83
2018-12-15T02:26:50.549Z,3.17
2018-12-15T02:27:27.429Z,2.57
2018-12-15T02:28:04.424Z,2.83
2018-12-15T02:28:41.401Z,3.20
2018-12-15T02:29:18.388Z,3.00
2018-12-15T02:29:55.185Z,3.40
2018-12-15T02:30:31.920Z,3.47
2018-12-15T02:31:08.712Z,3.20
2018-12-15T02:31:45.525Z,3.27
2018-12-15T02:32:22.322Z,2.80
2018-12-15T02:32:59.159Z,3.37
2018-12-15T02:33:35.946Z,2.70
2018-12-15T02:34:12.829Z,3.00
2018-12-15T02:34:49.575Z,3.30
2018-12-15T02:35:26.492Z,2.60
2018-12-15T02:36:03.977Z,2.70
2018-12-15T02:36:40.789Z,3.60
2018-12-15T02:37:17.679Z,2.70
2018-12-15T02:37:54.799Z,2.97
2018-12-15T02:38:31.678Z,2.67
2018-12-15T02:39:10.866Z,2.67
2018-12-15T02:39:48.043Z,3.10
2018-12-15T02:40:24.934Z,3.33
2018-12-15T02:41:01.880Z,2.10
2018-12-15T02:41:38.804Z,2.10
2018-12-15T02:42:16.516Z,2.60
2018-12-15T02:42:53.269Z,2.60
2018-12-15T02:43:30.161Z,2.33
2018-12-15T02:44:07.181Z,3.03
2018-12-15T02:44:44.256Z,3.60
2018-12-15T02:45:21.380Z,2.90
2018-12-15T02:45:58.242Z,3.53
2018-12-15T02:46:35.097Z,2.63
2018-12-15T02:47:12.093Z,2.90
2018-12-15T02:47:48.973Z,2.13
2018-12-15T02:48:25.937Z,2.40
2018-12-15T02:49:02.875Z,2.20
2018-12-15T02:49:39.727Z,2.63
2018-12-15T02:50:16.676Z,2.33
2018-12-15T02:50:53.523Z,2.33
2018-12-15T02:51:30.288Z,2.90
2018-12-15T02:52:07.042Z,2.77
2018-12-15T02:52:43.944Z,3.30
2018-12-15T02:53:20.812Z,2.57
2018-12-15T02:53:57.705Z,2.30
2018-12-15T02:54:34.458Z,2.13
2018-12-15T02:55:11.272Z,1.73
2018-12-15T02:55:48.111Z,1.70
2018-12-15T02:56:24.915Z,1.87
2018-12-15T02:57:01.610Z,1.83
2018-12-15T02:57:38.455Z,2.10
2018-12-15T02:58:15.360Z,2.53
2018-12-15T02:58:52.412Z,1.90
2018-12-15T02:59:29.350Z,1.73
2018-12-15T03:00:06.314Z,2.17
2018-12-15T03:00:43.207Z,2.43
2018-12-15T03:01:20.143Z,2.33
2018-12-15T03:01:57.010Z,2.53
2018-12-15T03:02:33.952Z,2.53
2018-12-15T03:03:10.865Z,2.07
2018-12-15T03:03:48.302Z,2.40
2018-12-15T03:04:25.286Z,1.77
2018-12-15T03:05:01.998Z,2.70
2018-12-15T03:05:38.910Z,2.30
2018-12-15T03:06:15.806Z,2.63
2018-12-15T03:06:52.694Z,2.57
2018-12-15T03:07:29.628Z,3.00
2018-12-15T03:08:06.661Z,3.00
2018-12-15T03:08:43.485Z,2.30
2018-12-15T03:09:20.432Z,3.50
2018-12-15T03:09:57.390Z,3.27
2018-12-15T03:10:34.218Z,2.67
2018-12-15T03:11:11.132Z,2.90
2018-12-15T03:11:47.997Z,2.10
2018-12-15T03:12:24.904Z,2.57
2018-12-15T03:13:01.679Z,2.80
2018-12-15T03:13:38.499Z,2.90
2018-12-15T03:14:15.237Z,2.30
2018-12-15T03:14:52.121Z,2.40
2018-12-15T03:15:28.979Z,2.77
2018-12-15T03:16:05.894Z,2.40
2018-12-15T03:16:51.212Z,2.60
2018-12-15T03:17:28.011Z,3.27
2018-12-15T03:18:04.870Z,3.40
2018-12-15T03:18:42.676Z,2.80
2018-12-15T03:19:19.654Z,3.73
2018-12-15T03:19:58.321Z,3.37
2018-12-15T03:20:35.062Z,2.83
2018-12-15T03:21:11.950Z,2.40
2018-12-15T03:21:48.901Z,2.80
2018-12-15T03:22:25.817Z,3.70
2018-12-15T03:23:02.736Z,3.63
2018-12-15T03:23:39.676Z,3.17
2018-12-15T03:24:16.767Z,3.13
2018-12-15T03:24:53.486Z,3.13
2018-12-15T03:25:30.339Z,3.20
2018-12-15T03:26:07.279Z,3.77
2018-12-15T03:26:44.044Z,3.60
2018-12-15T03:27:20.980Z,3.30
2018-12-15T03:27:57.939Z,2.90
2018-12-15T03:28:34.786Z,3.00
2018-12-15T03:29:11.524Z,3.10
2018-12-15T03:29:48.312Z,3.57
2018-12-15T03:30:25.197Z,3.30
2018-12-15T03:31:02.323Z,3.33
2018-12-15T03:31:39.152Z,3.10
2018-12-15T03:32:16.034Z,3.30
2018-12-15T03:32:52.959Z,3.80
2018-12-15T03:33:29.921Z,2.90
2018-12-15T03:34:06.923Z,2.93
2018-12-15T03:34:43.736Z,2.40
2018-12-15T03:35:20.571Z,2.30
2018-12-15T03:35:57.428Z,2.53
2018-12-15T03:36:34.424Z,2.43
2018-12-15T03:37:11.259Z,2.60
2018-12-15T03:37:48.142Z,2.90
2018-12-15T03:38:25.014Z,2.70
2018-12-15T03:39:01.888Z,3.00
2018-12-15T03:39:38.736Z,3.07
2018-12-15T03:40:15.746Z,2.50
2018-12-15T03:40:52.821Z,2.43
2018-12-15T03:41:30.282Z,2.40
2018-12-15T03:42:07.708Z,2.57
2018-12-15T03:42:45.010Z,2.37
2018-12-15T03:43:22.015Z,2.27
2018-12-15T03:43:58.810Z,2.33
2018-12-15T03:44:35.753Z,2.87
2018-12-15T03:45:12.707Z,2.37
2018-12-15T03:45:49.656Z,2.40
2018-12-15T03:46:26.682Z,1.80
2018-12-15T03:47:03.609Z,2.10
2018-12-15T03:47:40.431Z,2.67
2018-12-15T03:48:17.368Z,2.03
2018-12-15T03:48:54.372Z,2.00
2018-12-15T03:49:31.217Z,2.67
2018-12-15T03:50:09.721Z,2.20
2018-12-15T03:50:46.614Z,2.37
2018-12-15T03:51:23.422Z,2.63
2018-12-15T03:52:00.217Z,2.30
2018-12-15T03:52:37.096Z,2.37
2018-12-15T03:53:13.988Z,2.50
2018-12-15T03:53:51.004Z,2.00
2018-12-15T03:54:27.849Z,2.53
2018-12-15T03:55:04.762Z,1.90
2018-12-15T03:55:41.571Z,1.60
2018-12-15T03:56:18.467Z,1.97
2018-12-15T03:56:55.261Z,1.87
2018-12-15T03:57:32.119Z,2.20
2018-12-15T03:58:08.968Z,1.90
2018-12-15T03:58:45.898Z,2.20
2018-12-15T03:59:23.538Z,1.63
2018-12-15T04:00:00.533Z,2.20
2018-12-15T04:00:37.663Z,2.40
2018-12-15T04:01:14.636Z,2.33
2018-12-15T04:01:51.457Z,2.03
2018-12-15T04:02:28.391Z,2.57
2018-12-15T04:03:05.425Z,2.60
2018-12-15T04:03:42.147Z,2.20
2018-12-15T04:04:20.089Z,2.27
2018-12-15T04:04:57.029Z,2.20
2018-12-15T04:05:33.968Z,2.30
2018-12-15T04:06:10.896Z,1.70
2018-12-15T04:06:47.644Z,1.60
2018-12-15T04:07:24.495Z,1.70
2018-12-15T04:08:01.342Z,1.73
2018-12-15T04:08:39.279Z,2.20
2018-12-15T04:09:17.090Z,2.27
2018-12-15T04:09:53.932Z,2.37
2018-12-15T04:10:30.745Z,2.40
2018-12-15T04:11:07.621Z,2.10
2018-12-15T04:11:44.621Z,2.23
2018-12-15T04:12:21.486Z,2.47
2018-12-15T04:12:58.640Z,2.17
2018-12-15T04:13:35.353Z,2.00
2018-12-15T04:17:28.923Z,2.07
2018-12-15T04:18:05.717Z,2.17
2018-12-15T04:18:42.541Z,2.27
2018-12-15T04:19:19.328Z,2.30
2018-12-15T04:19:56.135Z,2.30
2018-12-15T04:20:33.140Z,2.60
2018-12-15T04:21:10.016Z,1.90
2018-12-15T04:21:47.022Z,2.30
2018-12-15T04:22:27.124Z,2.63
2018-12-15T04:23:04.047Z,1.90
2018-12-15T04:23:41.194Z,2.40
2018-12-15T04:24:18.294Z,2.50
2018-12-15T04:24:55.364Z,2.73
2018-12-15T04:25:32.420Z,2.90
2018-12-15T04:26:09.615Z,2.27
2018-12-15T04:26:46.833Z,2.27
2018-12-15T04:27:23.941Z,2.13
2018-12-15T04:28:00.865Z,2.70
2018-12-15T04:28:37.896Z,2.50
2018-12-15T04:29:14.980Z,3.17
2018-12-15T04:29:52.043Z,3.10
2018-12-15T04:30:28.874Z,2.77
2018-12-15T04:31:06.799Z,3.00
2018-12-15T04:31:43.861Z,3.47
2018-12-15T04:32:20.900Z,2.77
2018-12-15T04:32:57.866Z,3.33
2018-12-15T04:33:34.696Z,2.97
2018-12-15T04:34:11.505Z,3.20
2018-12-15T04:34:48.537Z,2.47
2018-12-15T04:35:25.479Z,2.17
2018-12-15T04:36:03.029Z,3.00
2018-12-15T04:36:39.951Z,2.60
2018-12-15T04:37:16.911Z,3.30
2018-12-15T04:37:54.044Z,2.90
2018-12-15T04:38:30.940Z,4.03
2018-12-15T04:39:08.964Z,3.80
2018-12-15T04:39:45.797Z,4.13
2018-12-15T04:40:22.790Z,3.53
2018-12-15T04:40:59.706Z,3.50
2018-12-15T04:41:37.753Z,2.80
2018-12-15T04:42:14.820Z,2.60
2018-12-15T04:42:51.699Z,3.17
2018-12-15T04:43:28.593Z,3.67
2018-12-15T04:44:05.405Z,3.03
2018-12-15T04:44:42.184Z,4.73
2018-12-15T04:45:19.099Z,3.60
2018-12-15T04:45:56.128Z,3.17
2018-12-15T04:46:33.045Z,4.00
2018-12-15T04:47:10.225Z,3.70
2018-12-15T04:47:47.338Z,3.80
2018-12-15T04:48:24.344Z,4.53
2018-12-15T04:49:01.255Z,4.07
2018-12-15T04:49:38.190Z,3.67
2018-12-15T04:50:15.161Z,4.03
2018-12-15T04:50:52.077Z,3.87
2018-12-15T04:51:29.003Z,4.57
2018-12-15T04:52:05.969Z,4.30
2018-12-15T04:52:42.892Z,5.20
2018-12-15T04:53:19.960Z,4.67
2018-12-15T04:53:57.014Z,4.80
2018-12-15T04:54:33.955Z,4.67
2018-12-15T04:55:10.806Z,4.47
2018-12-15T04:55:47.739Z,4.07
2018-12-15T04:56:24.655Z,3.93
2018-12-15T04:57:01.611Z,4.20
2018-12-15T04:57:38.500Z,3.80
2018-12-15T04:58:16.235Z,4.17
2018-12-15T04:58:53.118Z,3.53
2018-12-15T04:59:30.054Z,3.57
2018-12-15T05:00:07.084Z,3.67
2018-12-15T05:00:43.920Z,4.40
2018-12-15T05:01:20.751Z,4.50
2018-12-15T05:01:57.612Z,4.67
2018-12-15T05:02:34.472Z,5.60
2018-12-15T05:03:11.431Z,5.70
2018-12-15T05:03:48.337Z,5.60
2018-12-15T05:04:25.408Z,6.00
2018-12-15T05:05:02.699Z,5.60
2018-12-15T05:05:39.736Z,4.83
2018-12-15T05:06:16.694Z,5.67
2018-12-15T05:06:54.016Z,5.40
2018-12-15T05:07:31.166Z,5.47
2018-12-15T05:08:08.456Z,5.03
2018-12-15T05:08:45.745Z,4.90
2018-12-15T05:09:22.673Z,3.90
2018-12-15T05:09:59.532Z,3.73
2018-12-15T05:10:36.841Z,3.90
2018-12-15T05:11:13.764Z,4.60
2018-12-15T05:11:50.642Z,4.60
2018-12-15T05:12:27.550Z,5.80
2018-12-15T05:13:04.411Z,4.40
2018-12-15T05:13:41.609Z,4.80
2018-12-15T05:14:18.523Z,4.13
2018-12-15T05:14:55.425Z,4.10
2018-12-15T05:15:32.618Z,4.57
2018-12-15T05:16:09.734Z,4.10
2018-12-15T05:16:46.567Z,5.37
2018-12-15T05:17:23.779Z,4.40
2018-12-15T05:18:01.176Z,4.03
2018-12-15T05:18:38.136Z,4.37
2018-12-15T05:19:15.186Z,4.63
2018-12-15T05:19:51.972Z,5.10
2018-12-15T05:20:29.020Z,4.63
2018-12-15T05:21:06.452Z,4.57
2018-12-15T05:21:43.454Z,4.50
2018-12-15T05:22:20.483Z,4.33
2018-12-15T05:22:57.341Z,4.90
2018-12-15T05:23:34.135Z,4.47
2018-12-15T05:24:11.141Z,4.00
2018-12-15T05:24:48.212Z,4.40
2018-12-15T05:25:24.988Z,4.00
2018-12-15T05:26:01.957Z,4.80
2018-12-15T05:26:38.839Z,5.00
2018-12-15T05:27:15.850Z,5.30
2018-12-15T05:27:52.798Z,4.90
2018-12-15T05:28:29.636Z,5.40
2018-12-15T05:29:07.570Z,5.10
2018-12-15T05:29:44.472Z,5.90
2018-12-15T05:30:21.724Z,5.73
2018-12-15T05:30:58.704Z,6.10
2018-12-15T05:31:35.521Z,5.47
2018-12-15T05:32:12.380Z,5.63
2018-12-15T05:32:49.222Z,4.60
2018-12-15T05:33:26.127Z,5.30
2018-12-15T05:34:03.079Z,5.73
2018-12-15T05:34:39.978Z,6.10
2018-12-15T05:35:17.154Z,5.47
2018-12-15T05:35:53.976Z,5.83
2018-12-15T05:36:30.957Z,5.07
2018-12-15T05:37:07.982Z,5.70
2018-12-15T05:37:45.100Z,6.00
2018-12-15T05:38:21.904Z,5.30
2018-12-15T05:38:58.779Z,5.67
2018-12-15T05:39:36.119Z,5.43
2018-12-15T05:40:13.121Z,6.27
2018-12-15T05:40:50.022Z,5.87
2018-12-15T05:41:26.957Z,6.10
2018-12-15T05:42:04.806Z,5.40
2018-12-15T05:42:41.692Z,5.83
2018-12-15T05:43:18.577Z,6.07
2018-12-15T05:43:55.486Z,6.33
2018-12-15T05:44:32.322Z,5.47
2018-12-15T05:45:09.824Z,5.37
2018-12-15T05:45:46.621Z,5.70
2018-12-15T05:46:23.638Z,6.23
2018-12-15T05:47:00.333Z,6.27
2018-12-15T05:47:37.229Z,6.83
2018-12-15T05:48:14.275Z,5.57
2018-12-15T05:48:51.095Z,6.50
2018-12-15T05:49:28.048Z,5.40
2018-12-15T05:50:05.040Z,6.70
2018-12-15T05:50:42.214Z,5.40
2018-12-15T05:51:19.522Z,6.13
2018-12-15T05:51:56.520Z,5.63
2018-12-15T05:52:33.487Z,5.90
2018-12-15T05:53:10.348Z,5.67
2018-12-15T05:53:47.530Z,5.57
2018-12-15T05:54:24.569Z,5.93
2018-12-15T05:55:01.471Z,5.27
2018-12-15T05:55:38.360Z,4.73
2018-12-15T05:56:15.255Z,4.47
2018-12-15T05:56:52.749Z,5.73
2018-12-15T05:57:29.616Z,5.80
2018-12-15T05:58:06.431Z,5.90
2018-12-15T05:58:43.286Z,5.83
2018-12-15T05:59:20.235Z,6.40
2018-12-15T05:59:57.269Z,5.93
2018-12-15T06:00:34.480Z,5.97
2018-12-15T06:01:11.831Z,4.50
2018-12-15T06:01:48.788Z,5.70
2018-12-15T06:02:26.551Z,5.83
2018-12-15T06:03:03.889Z,5.80
2018-12-15T06:03:42.672Z,5.53
2018-12-15T06:04:19.701Z,5.63
2018-12-15T06:04:57.149Z,4.47
2018-12-15T06:05:34.084Z,3.90
2018-12-15T06:06:11.209Z,5.23
2018-12-15T06:06:48.115Z,4.70
2018-12-15T06:07:24.936Z,5.27
2018-12-15T06:08:01.768Z,5.30
2018-12-15T06:08:38.532Z,4.40
2018-12-15T06:09:15.279Z,4.67
2018-12-15T06:09:52.149Z,5.63
2018-12-15T06:10:29.012Z,4.70
2018-12-15T06:11:05.860Z,3.83
2018-12-15T06:12:07.226Z,3.90
2018-12-15T06:12:46.765Z,4.47
2018-12-15T06:13:24.595Z,4.00
2018-12-15T06:14:01.468Z,4.13
2018-12-15T06:14:38.602Z,4.40
2018-12-15T06:15:15.765Z,3.83
2018-12-15T06:15:52.596Z,4.80
2018-12-15T06:16:29.628Z,4.50
2018-12-15T06:17:19.263Z,4.30
2018-12-15T06:18:06.038Z,4.47
2018-12-15T06:18:45.070Z,4.50
2018-12-15T06:19:26.154Z,3.70
2018-12-15T06:20:11.463Z,3.90
2018-12-15T06:21:00.727Z,3.77
2018-12-15T06:21:42.765Z,4.47
2018-12-15T06:22:26.698Z,3.93
2018-12-15T06:23:07.723Z,4.33
2018-12-15T06:23:50.269Z,4.20
2018-12-15T06:24:34.122Z,3.50
2018-12-15T06:25:17.043Z,3.20
2018-12-15T06:26:12.267Z,3.90
2018-12-15T06:26:59.373Z,4.30
2018-12-15T06:27:44.760Z,3.97
2018-12-15T06:28:21.919Z,4.30
2018-12-15T06:29:08.549Z,3.90
2018-12-15T06:29:47.191Z,3.50
2018-12-15T06:30:34.532Z,4.60
2018-12-15T06:31:21.796Z,4.33
2018-12-15T06:32:00.784Z,3.80
2018-12-15T06:32:38.387Z,4.63
2018-12-15T06:33:18.328Z,4.63
2018-12-15T06:33:55.543Z,3.83
2018-12-15T06:34:44.343Z,3.37
2018-12-15T06:35:30.179Z,3.80
2018-12-15T06:36:08.439Z,3.80
2018-12-15T06:36:52.995Z,3.50
2018-12-15T06:37:37.653Z,4.40
2018-12-15T06:38:15.339Z,3.80
2018-12-15T06:38:58.205Z,3.77
2018-12-15T06:39:36.971Z,3.13
2018-12-15T06:40:14.311Z,3.23
2018-12-15T06:40:51.517Z,3.40
2018-12-15T06:41:40.291Z,3.20
2018-12-15T06:42:18.579Z,4.53
2018-12-15T06:42:59.513Z,3.53
2018-12-15T06:43:38.353Z,3.40
2018-12-15T06:44:16.449Z,3.43
2018-12-15T06:44:56.581Z,3.03
2018-12-15T06:45:36.483Z,3.30
2018-12-15T06:46:25.858Z,2.27
2018-12-15T06:47:10.021Z,2.33
2018-12-15T06:48:00.701Z,3.03
2018-12-15T06:49:49.541Z,3.03
2018-12-15T06:50:27.936Z,2.80
2018-12-15T06:51:05.005Z,3.40
2018-12-15T06:51:42.335Z,2.80
2018-12-15T06:52:21.262Z,3.90
2018-12-15T06:53:05.047Z,2.30
2018-12-15T06:53:45.024Z,3.27
2018-12-15T06:54:22.824Z,2.70
2018-12-15T06:55:01.426Z,2.77
2018-12-15T06:55:41.440Z,3.10
2018-12-15T06:56:30.423Z,3.30
2018-12-15T06:57:08.985Z,2.73
2018-12-15T06:57:52.478Z,3.07
2018-12-15T06:58:30.831Z,2.80
2018-12-15T07:03:18.087Z,3.60
2018-12-15T07:03:59.129Z,3.77
2018-12-15T07:04:46.288Z,3.70
2018-12-15T07:18:44.772Z,2.33
2018-12-15T07:19:30.033Z,2.10
2018-12-15T14:49:24.950Z,1.50
2018-12-15T14:50:54.617Z,1.70
2018-12-15T14:51:33.632Z,1.87
2018-12-15T14:52:13.098Z,1.83
2018-12-15T14:52:50.856Z,1.80
2018-12-15T14:53:28.626Z,1.73
2018-12-15T14:54:05.928Z,2.67
2018-12-15T14:54:43.713Z,2.13
2018-12-15T14:55:21.321Z,1.73
2018-12-15T14:55:59.001Z,2.33
2018-12-15T14:56:36.503Z,1.90
2018-12-15T14:57:16.419Z,1.83
2018-12-15T14:57:53.998Z,1.83
2018-12-15T14:58:31.997Z,2.20
2018-12-15T14:59:09.286Z,1.53
2018-12-15T14:59:46.302Z,1.47
2018-12-15T15:00:23.936Z,1.77
2018-12-15T15:01:01.089Z,2.67
2018-12-15T15:01:38.373Z,2.03
2018-12-15T15:02:15.528Z,1.60
2018-12-15T15:02:53.408Z,2.17
2018-12-15T15:03:30.385Z,2.37
2018-12-15T15:04:07.734Z,2.03
2018-12-15T15:04:44.898Z,2.83
2018-12-15T15:05:21.957Z,3.00
2018-12-15T15:05:58.854Z,2.20
2018-12-15T15:06:36.076Z,2.13
2018-12-15T15:07:13.321Z,2.57
2018-12-15T15:07:50.752Z,2.20
2018-12-15T15:08:28.292Z,2.20
2018-12-15T15:09:05.713Z,2.77
2018-12-15T15:09:43.238Z,3.00
2018-12-15T15:10:22.668Z,1.90
2018-12-15T15:10:59.770Z,2.23
2018-12-15T15:11:41.342Z,2.70
2018-12-15T15:12:33.055Z,2.30
2018-12-15T15:13:10.304Z,3.20
2018-12-15T15:13:47.285Z,2.67
2018-12-15T15:14:24.159Z,2.40
2018-12-15T15:15:01.124Z,2.33
2018-12-15T15:15:37.979Z,2.40
2018-12-15T15:16:14.883Z,1.90
2018-12-15T15:16:51.765Z,2.30
2018-12-15T15:17:29.872Z,3.13
2018-12-15T15:18:07.676Z,2.93
2018-12-15T15:18:44.612Z,2.53
2018-12-15T15:19:26.081Z,2.20
2018-12-15T15:20:03.105Z,2.30
2018-12-15T15:20:42.134Z,2.23
2018-12-15T15:21:18.845Z,2.57
2018-12-15T15:21:59.182Z,2.60
2018-12-15T15:22:36.974Z,2.13
2018-12-15T15:23:15.196Z,3.33
2018-12-15T15:23:53.796Z,2.20
2018-12-15T15:24:35.428Z,2.57
2018-12-15T15:25:15.966Z,2.53
2018-12-15T15:25:52.949Z,2.43
2018-12-15T15:26:29.805Z,2.73
2018-12-15T15:27:06.702Z,2.57
2018-12-15T15:27:43.841Z,2.53
2018-12-15T15:28:20.655Z,2.93
2018-12-15T15:28:57.585Z,3.40
2018-12-15T15:29:34.465Z,3.20
2018-12-15T15:30:12.244Z,3.13
2018-12-15T15:30:50.302Z,2.73
2018-12-15T15:31:27.975Z,2.70
2018-12-15T15:32:05.165Z,3.57
2018-12-15T15:32:43.207Z,2.63
2018-12-15T15:33:20.079Z,2.37
2018-12-15T15:33:57.117Z,2.70
2018-12-15T15:34:33.969Z,2.90
2018-12-15T15:35:14.696Z,2.97
2018-12-15T15:35:52.831Z,2.10
2018-12-15T15:36:29.796Z,2.50
2018-12-15T15:37:06.824Z,2.67
2018-12-15T15:37:44.665Z,2.97
2018-12-15T15:38:22.869Z,3.00
2018-12-15T15:38:59.826Z,2.40
2018-12-15T15:39:37.832Z,2.30
2018-12-15T15:40:15.945Z,2.93
2018-12-15T15:40:53.008Z,3.30
2018-12-15T15:41:30.241Z,2.70
2018-12-15T15:42:07.056Z,2.70
2018-12-15T15:42:43.968Z,2.60
2018-12-15T15:43:21.638Z,3.00
2018-12-15T15:43:59.752Z,2.80
2018-12-15T15:44:36.603Z,2.73
2018-12-15T15:45:13.435Z,2.43
2018-12-15T15:45:50.460Z,3.37
2018-12-15T15:46:27.291Z,2.43
2018-12-15T15:47:04.120Z,3.27
2018-12-15T15:47:40.995Z,2.60
2018-12-15T15:48:18.124Z,2.50
2018-12-15T15:48:55.024Z,3.03
2018-12-15T15:49:31.990Z,3.03
2018-12-15T15:50:09.919Z,3.07
2018-12-15T15:50:46.801Z,2.53
2018-12-15T15:51:24.258Z,2.60
2018-12-15T15:52:01.293Z,2.87
2018-12-15T15:52:38.227Z,2.57
2018-12-15T15:53:15.108Z,2.60
2018-12-15T15:53:51.938Z,2.93
2018-12-15T15:54:28.736Z,2.50
2018-12-15T15:55:05.536Z,2.50
2018-12-15T15:55:42.346Z,3.40
2018-12-15T15:56:19.160Z,3.07
2018-12-15T15:56:56.017Z,3.57
2018-12-15T15:57:32.868Z,2.83
2018-12-15T15:58:10.959Z,2.43
2018-12-15T15:58:47.853Z,3.10
2018-12-15T15:59:24.753Z,2.90
2018-12-15T16:00:01.620Z,2.77
2018-12-15T16:00:38.645Z,3.13
2018-12-15T16:01:15.493Z,2.80
2018-12-15T16:01:52.373Z,2.80
2018-12-15T16:02:29.470Z,2.90
2018-12-15T16:03:06.718Z,2.57
2018-12-15T16:03:43.587Z,2.90
2018-12-15T16:04:22.649Z,2.90
2018-12-15T16:04:59.654Z,2.60
2018-12-15T16:05:36.476Z,3.13
2018-12-15T16:06:13.329Z,3.83
2018-12-15T16:06:50.344Z,2.73
2018-12-15T16:07:27.201Z,3.10
2018-12-15T16:08:04.295Z,2.93
2018-12-15T16:08:41.147Z,2.90
2018-12-15T16:09:17.984Z,3.17
2018-12-15T16:09:54.864Z,2.80
2018-12-15T16:10:31.697Z,2.83
2018-12-15T16:11:08.545Z,2.87
2018-12-15T16:11:45.378Z,2.33